Main page
METAR-TAF:

METAR-TAF

Airports :

Olsztyn-Mazury Airport

Olsztyn, Poland

latitude: 53-28-55N, longitude: 20-56-16E, elevation: 141 m

Current weather observation

The report was made 9 hours and 30 minutes ago, at 21:00 UTC
Wind 2 kt from variable directions
Temperature -10°C
Humidity 92%
Pressure 1013 hPa
Visibility: 2400 m
mist

METAR: EPSY 222100Z VRB02KT 2400 BR NSC M10/M11 Q1013

Time: 07:30 (06:30 UTC)

Forecast

The report was made 10 hours and 0 minutes ago, at 20:30 UTC
Forecast valid from 22 at 21 UTC to 23 at 06 UTC
Wind 4 kt from the East/Southeast
Visibility: 2000 m
mist

TAF: EPSY 222030Z 2221/2306 12004KT 2000 BR NSC

Weather observations and forecasts of more than 4000 airports (METAR and TAF reports).

The available stations are represented by yellow and red dots on the map.

Hover mouse over dot to see the name of the station.

Then click to see weather observations and forecasts.

To change the map : click on the green buttons with a black cross to zoom in, on the green button with a dash to zoom out, or on the green arrows for adjacent maps.


METAR-TAF: